Tuesday, February 20, 2018, 4:40 AM EST
Back to Local

KBED, Bedford Hanscom Field

Location: Concord, MA, United States Lat: 42.467
Local Time: 4:40 AM EST ( 9:40 GMT) Lon: -71.3
Time Zone: US/Eastern Elev: 134 ft

Show me the last for .
Show Decoded

2018-02-20 03:56 METAR KBED 200856Z AUTO 22011KT 10SM OVC008 11/10 A3021 RMK AO2 SLP243 T01110100
                 56009 =
2018-02-20 02:56 METAR KBED 200756Z AUTO 24008KT 10SM OVC007 11/09 A3022 RMK AO2 SLP246 T01060094
                 =
2018-02-20 01:56 METAR KBED 200656Z AUTO 22011KT 10SM OVC008 11/09 A3022 RMK AO2 SLP248 T01060094
                 =
2018-02-20 01:39 METAR KBED 200639Z AUTO 23009KT 10SM OVC008 11/09 A3023 RMK AO2 T01060094 =
2018-02-20 00:56 METAR KBED 200556Z AUTO 22012G22KT 10SM BKN012 OVC085 10/09 A3024 RMK AO2
                 RAB35E44 SLP252 P0000 60004 T01000089 10100 20072 58016 =
2018-02-19 23:56 METAR KBED 200456Z AUTO 22014G19KT 10SM BKN013 OVC019 09/08 A3026 RMK AO2
                 RAB00E27 SLP261 P0000 T00940083 400941089 =
2018-02-19 23:48 METAR KBED 200448Z AUTO 22013G17KT 10SM BKN013 OVC019 09/08 A3026 RMK AO2
                 RAB00E27 P0000 T00940083 =
2018-02-19 23:38 METAR KBED 200438Z AUTO 22011KT 10SM SCT015 BKN019 OVC100 09/08 A3026 RMK AO2
                 RAB00E27 P0000 T00940078 =
2018-02-19 22:56 METAR KBED 200356Z AUTO 22011G19KT 10SM BKN100 09/08 A3027 RMK AO2 RAB31E49
                 SLP266 P0000 T00890078 =
2018-02-19 22:26 METAR KBED 200326Z 21011KT 10SM SCT013 BKN060 BKN100 09/08 A3027 RMK AO2
                 T00890078 =
2018-02-19 21:56 METAR KBED 200256Z 22010KT 10SM BKN015 OVC050 09/08 A3028 RMK AO2 RAE51 SLP270
                 P0003 60004 T00890078 58005 =
2018-02-19 21:54 METAR KBED 200254Z 22012KT 10SM BKN015 OVC050 09/08 A3029 RMK AO2 RAE51 P0003 =
2018-02-19 21:30 METAR KBED 200230Z 22009KT 10SM -RA SCT013 BKN031 OVC050 08/07 A3029 RMK AO2
                 P0002 T00830072 =
2018-02-19 20:56 METAR KBED 200156Z 21008KT 9SM -RA OVC012 07/07 A3030 RMK AO2 SLP275 P0000
                 T00720067 =
2018-02-19 20:06 METAR KBED 200106Z 21008KT 10SM -RA OVC014 07/06 A3030 RMK AO2 P0000 T00720061 =
2018-02-19 19:56 METAR KBED 200056Z 21009KT 10SM -RA BKN015 OVC038 07/06 A3030 RMK AO2 RAB15
                 SLP276 P0001 T00720056 =
2018-02-19 19:49 METAR KBED 200049Z 21010KT 10SM -RA BKN017 OVC038 07/06 A3030 RMK AO2 RAB15
                 P0001 T00720056 =
2018-02-19 18:56 METAR KBED 192356Z 20008KT 10SM FEW029 OVC034 07/04 A3031 RMK AO2 RAB2259E46
                 SLP280 P0000 60000 T00720044 10089 20072 56015 =
2018-02-19 17:56 METAR KBED 192256Z 21009KT 10SM SCT048 BKN075 OVC090 08/03 A3032 RMK AO2 SLP283
                 T00780028 =
2018-02-19 16:56 METAR KBED 192156Z 20009KT 10SM BKN043 OVC095 08/02 A3034 RMK AO2 SLP289
                 T00830017 =
2018-02-19 15:56 METAR KBED 192056Z 21008KT 10SM OVC044 08/01 A3035 RMK AO2 SLP294 T00830011
                 56017 =
2018-02-19 14:56 METAR KBED 191956Z 20011G20KT 10SM OVC048 09/00 A3036 RMK AO2 SLP296 T00890000 =
2018-02-19 13:56 METAR KBED 191856Z 20015KT 10SM CLR 09/M01 A3037 RMK AO2 SLP301 T00891006 =
2018-02-19 12:56 METAR KBED 191756Z 21012G23KT 10SM FEW034 SCT250 07/M01 A3040 RMK AO2 SLP311
                 T00721011 10078 21089 58037 =
2018-02-19 11:56 METAR KBED 191656Z 20012KT 10SM FEW034 SCT250 06/M01 A3044 RMK AO2 PRESFR SLP323
                 T00611011 =
2018-02-19 10:56 METAR KBED 191556Z 20012G20KT 170V230 10SM SCT050 SCT250 05/M01 A3048 RMK AO2
                 SLP339 T00501011 =
2018-02-19 09:56 METAR KBED 191456Z 21009KT 10SM CLR 04/M02 A3051 RMK AO2 SLP348 T00391022 56011
                 =
2018-02-19 08:56 METAR KBED 191356Z 19009KT 10SM SCT250 02/M04 A3051 RMK AO2 SLP350 T00171039 =
2018-02-19 07:56 METAR KBED 191256Z 00000KT 10SM CLR M07/M07 A3053 RMK AO2 SLP357 T10671072 =
2018-02-19 06:56 METAR KBED 191156Z 00000KT 10SM FEW250 M09/M10 A3054 RMK AO2 SLP360 I1000 I6002
                 T10891100 11056 21089 51010 =
2018-02-19 05:56 METAR KBED 191056Z AUTO 00000KT 10SM CLR M08/M08 A3053 RMK AO2 SLP356 I1000
                 T10781083 =
2018-02-19 04:56 METAR KBED 190956Z AUTO 00000KT 10SM CLR M08/M09 A3053 RMK AO2 SLP356 T10781094
                 =

Support USWX by starting your Amazon purchase here.